Time;durP1;ratioP1;P1;durP2;ratioP2;P2;SDS_P1;SDS_P2;PMS_P1;PMS_P2;Temp;Humidity;BMP_temperature;BMP_pressure;BME280_temperature;BME280_humidity;BME280_pressure;Samples;Min_cycle;Max_cycle;Signal;HPM_P1;HPM_P2
2023/07/27 00:00:12;;;;;;;;;;;12.10;99.90;;;;;;5095542;28;19928;-81
2023/07/27 00:02:38;;;;;;;;;;;12.10;99.90;;;;;;5096181;28;19969;-77
2023/07/27 00:05:04;;;;;;;;;;;12.10;99.90;;;;;;5096109;28;20307;-75
2023/07/27 00:07:29;;;;;;;;;;;12.10;99.90;;;;;;5112456;28;19923;-77
2023/07/27 00:09:55;;;;;;;;;;;12.10;99.90;;;;;;5112519;28;20266;-77
2023/07/27 00:12:23;;;;;;;;;;;12.10;99.90;;;;;;5113888;28;20405;-76
2023/07/27 00:14:49;;;;;;;;;;;12.10;99.90;;;;;;5112523;28;20018;-79
2023/07/27 00:17:15;;;;;;;;;;;12.10;99.90;;;;;;5112664;28;19930;-78
2023/07/27 00:19:49;;;;;;;;;;;12.10;99.90;;;;;;5114372;28;19923;-79
2023/07/27 00:22:14;;;;;;;;;;;12.10;99.90;;;;;;5112573;28;19927;-77
2023/07/27 00:24:40;;;;;;;;;;;12.10;99.90;;;;;;5112260;28;19920;-79
2023/07/27 00:27:06;;;;;;;;;;;12.20;99.90;;;;;;5111278;28;20021;-81
2023/07/27 00:29:34;;;;;;;;;;;12.10;99.90;;;;;;5112516;28;19924;-79
2023/07/27 00:32:00;;;;;;;;;;;12.10;99.90;;;;;;5112386;28;19923;-77
2023/07/27 00:34:26;;;;;;;;;;;12.10;99.90;;;;;;5112331;28;19919;-78
2023/07/27 00:36:52;;;;;;;;;;;12.10;99.90;;;;;;5112345;28;20296;-78
2023/07/27 00:39:18;;;;;;;;;;;12.10;99.90;;;;;;5112146;28;19920;-78
2023/07/27 00:41:44;;;;;;;;;;;12.10;99.90;;;;;;5112124;28;19920;-78
2023/07/27 00:44:10;;;;;;;;;;;12.20;99.90;;;;;;5112352;28;19924;-78
2023/07/27 00:46:36;;;;;;;;;;;12.20;99.90;;;;;;5111556;28;20395;-78
2023/07/27 00:49:02;;;;;;;;;;;12.20;99.90;;;;;;5112135;28;19927;-79
2023/07/27 00:51:29;;;;;;;;;;;12.30;99.90;;;;;;5111646;28;19927;-79
2023/07/27 00:53:55;;;;;;;;;;;12.30;99.90;;;;;;5112009;28;20499;-77
2023/07/27 00:56:20;;;;;;;;;;;12.40;99.90;;;;;;5111731;28;19966;-78
2023/07/27 00:58:47;;;;;;;;;;;12.40;99.90;;;;;;5110889;28;19924;-77
2023/07/27 01:01:12;;;;;;;;;;;12.40;99.90;;;;;;5111912;28;19923;-77
2023/07/27 01:03:44;;;;;;;;;;;12.40;99.90;;;;;;5095839;28;19926;-80
2023/07/27 01:06:09;;;;;;;;;;;12.50;99.90;;;;;;5112082;28;19920;-78
2023/07/27 01:08:35;;;;;;;;;;;12.50;99.90;;;;;;5112613;28;19920;-79
2023/07/27 01:11:28;;;;;;;;;;;12.50;99.90;;;;;;5095646;28;19935;-77
2023/07/27 01:14:03;;;;;;;;;;;12.60;99.90;;;;;;5111766;28;19923;-77
2023/07/27 01:16:40;;;;;;;;;;;12.60;99.90;;;;;;5111342;28;19923;-78
2023/07/27 01:19:26;;;;;;;;;;;12.60;99.90;;;;;;5111166;28;19923;-77
2023/07/27 01:21:57;;;;;;;;;;;12.60;99.90;;;;;;5111386;28;19931;-77
2023/07/27 01:24:41;;;;;;;;;;;12.70;99.90;;;;;;5111586;28;19926;-80
2023/07/27 01:27:14;;;;;;;;;;;12.70;99.90;;;;;;5111894;28;20377;-76
2023/07/27 01:29:55;;;;;;;;;;;12.70;99.90;;;;;;5111238;28;19975;-79
2023/07/27 01:32:22;;;;;;;;;;;12.80;99.90;;;;;;5112281;28;20035;-80
2023/07/27 01:34:50;;;;;;;;;;;12.80;99.90;;;;;;5096348;28;19928;-79
2023/07/27 01:37:22;;;;;;;;;;;12.80;99.90;;;;;;5113551;28;19931;-77
2023/07/27 01:39:49;;;;;;;;;;;12.80;99.90;;;;;;5111432;28;19923;-80
2023/07/27 01:42:17;;;;;;;;;;;12.80;99.90;;;;;;5110395;28;20276;-81
2023/07/27 01:44:42;;;;;;;;;;;12.80;99.90;;;;;;5110880;28;20006;-79
2023/07/27 01:47:08;;;;;;;;;;;12.90;99.90;;;;;;5111932;28;20018;-81
2023/07/27 01:49:36;;;;;;;;;;;12.90;99.90;;;;;;5093425;28;19920;-78
2023/07/27 01:52:01;;;;;;;;;;;12.90;99.90;;;;;;5111225;28;20437;-76
2023/07/27 01:54:27;;;;;;;;;;;12.90;99.90;;;;;;5111083;28;19924;-80
2023/07/27 01:56:54;;;;;;;;;;;12.80;99.90;;;;;;5093369;28;19923;-78
2023/07/27 01:59:21;;;;;;;;;;;12.80;99.90;;;;;;5110377;28;19963;-80
2023/07/27 02:01:48;;;;;;;;;;;12.80;99.90;;;;;;5110884;28;20010;-78
2023/07/27 02:04:14;;;;;;;;;;;12.80;99.90;;;;;;5110578;28;20010;-81
2023/07/27 02:06:41;;;;;;;;;;;12.80;99.90;;;;;;5110585;28;20014;-80
2023/07/27 02:09:06;;;;;;;;;;;12.80;99.90;;;;;;5110821;28;19972;-81
2023/07/27 02:11:33;;;;;;;;;;;12.80;99.90;;;;;;5093814;28;19924;-77
2023/07/27 02:14:25;;;;;;;;;;;12.80;99.90;;;;;;5094894;28;19969;-76
2023/07/27 02:16:51;;;;;;;;;;;12.80;99.90;;;;;;5099943;28;19923;-80
2023/07/27 02:19:17;;;;;;;;;;;12.70;99.90;;;;;;5093465;28;19981;-76
2023/07/27 02:21:45;;;;;;;;;;;12.80;99.90;;;;;;5110255;28;20010;-77
2023/07/27 02:24:11;;;;;;;;;;;12.80;99.90;;;;;;5110318;28;19965;-77
2023/07/27 02:26:36;;;;;;;;;;;12.80;99.90;;;;;;5110237;28;19928;-80
2023/07/27 02:29:05;;;;;;;;;;;12.80;99.90;;;;;;5111685;28;19926;-77
2023/07/27 02:31:30;;;;;;;;;;;12.90;99.90;;;;;;5093464;28;19923;-79
2023/07/27 02:33:56;;;;;;;;;;;12.90;99.90;;;;;;5110289;28;20326;-77
2023/07/27 02:36:22;;;;;;;;;;;12.90;99.90;;;;;;5110653;28;19924;-79
2023/07/27 02:38:49;;;;;;;;;;;12.90;99.90;;;;;;5110458;28;20379;-78
2023/07/27 02:41:15;;;;;;;;;;;12.90;99.90;;;;;;5111430;28;19920;-77
2023/07/27 02:43:41;;;;;;;;;;;12.90;99.90;;;;;;5111860;28;19919;-80
2023/07/27 02:46:08;;;;;;;;;;;12.90;99.90;;;;;;5094176;28;19924;-82
2023/07/27 02:48:34;;;;;;;;;;;12.90;99.90;;;;;;5111560;28;19926;-76
2023/07/27 02:50:59;;;;;;;;;;;12.90;99.90;;;;;;5112868;28;19924;-80
2023/07/27 02:53:25;;;;;;;;;;;12.90;99.90;;;;;;5114606;28;19920;-79
2023/07/27 02:55:57;;;;;;;;;;;12.90;99.90;;;;;;5114431;28;20365;-74
2023/07/27 02:58:23;;;;;;;;;;;12.90;99.90;;;;;;5114768;28;20270;-76
2023/07/27 03:01:01;;;;;;;;;;;12.90;99.90;;;;;;5114753;28;19973;-77
2023/07/27 03:03:28;;;;;;;;;;;12.90;99.90;;;;;;5113085;27;19924;-77
2023/07/27 03:06:01;;;;;;;;;;;12.90;99.90;;;;;;5114077;28;20262;-79
2023/07/27 03:08:27;;;;;;;;;;;12.90;99.90;;;;;;5097402;28;19924;-77
2023/07/27 03:10:52;;;;;;;;;;;12.90;99.90;;;;;;5096831;28;19924;-78
2023/07/27 03:13:24;;;;;;;;;;;12.90;99.90;;;;;;5097887;28;19924;-80
2023/07/27 03:15:51;;;;;;;;;;;12.90;99.90;;;;;;5113459;28;19923;-77
2023/07/27 03:18:17;;;;;;;;;;;13.00;99.90;;;;;;5114017;28;20000;-79
2023/07/27 03:20:43;;;;;;;;;;;13.00;99.90;;;;;;5113629;28;19981;-81
2023/07/27 03:23:09;;;;;;;;;;;13.00;99.90;;;;;;5113724;28;20340;-79
2023/07/27 03:25:35;;;;;;;;;;;13.00;99.90;;;;;;5113547;28;19988;-80
2023/07/27 03:28:02;;;;;;;;;;;13.00;99.90;;;;;;5096562;28;19923;-77
2023/07/27 03:30:28;;;;;;;;;;;13.00;99.90;;;;;;5113588;28;20449;-77
2023/07/27 03:32:53;;;;;;;;;;;13.00;99.90;;;;;;5096182;28;20022;-80
2023/07/27 03:35:19;;;;;;;;;;;13.00;99.90;;;;;;5096462;28;20265;-75
2023/07/27 03:37:44;;;;;;;;;;;13.00;99.90;;;;;;5113028;28;20006;-78
2023/07/27 03:40:10;;;;;;;;;;;13.00;99.90;;;;;;5096032;28;19949;-77
2023/07/27 03:42:35;;;;;;;;;;;13.00;99.90;;;;;;5112985;28;20229;-80
2023/07/27 03:45:01;;;;;;;;;;;13.10;99.90;;;;;;5095753;28;19926;-79
2023/07/27 03:47:26;;;;;;;;;;;13.10;99.90;;;;;;5113555;28;20006;-79
2023/07/27 03:49:58;;;;;;;;;;;13.10;99.90;;;;;;5112843;28;19920;-82
2023/07/27 03:52:24;;;;;;;;;;;13.20;99.90;;;;;;5112576;28;20314;-78
2023/07/27 03:54:50;;;;;;;;;;;13.20;99.90;;;;;;5111502;28;19920;-78
2023/07/27 03:57:15;;;;;;;;;;;13.20;99.90;;;;;;5112084;28;19920;-79
2023/07/27 03:59:41;;;;;;;;;;;13.30;99.90;;;;;;5094087;28;20337;-77
2023/07/27 04:02:08;;;;;;;;;;;13.30;99.90;;;;;;5110980;28;20458;-79
2023/07/27 04:04:35;;;;;;;;;;;13.40;99.90;;;;;;5111742;28;19924;-77
2023/07/27 04:07:01;;;;;;;;;;;13.50;99.90;;;;;;5111429;28;19919;-78
2023/07/27 04:09:27;;;;;;;;;;;13.60;99.90;;;;;;5111809;28;19947;-79
2023/07/27 04:11:52;;;;;;;;;;;13.60;99.90;;;;;;5112329;28;19985;-78
2023/07/27 04:14:18;;;;;;;;;;;13.60;99.90;;;;;;5096679;28;19920;-79
2023/07/27 04:16:45;;;;;;;;;;;13.70;99.90;;;;;;5112491;28;19920;-76
2023/07/27 04:19:11;;;;;;;;;;;13.70;99.90;;;;;;5096304;28;19970;-80
2023/07/27 04:21:38;;;;;;;;;;;13.70;99.90;;;;;;5112410;28;19965;-80
2023/07/27 04:24:11;;;;;;;;;;;13.70;99.90;;;;;;5111757;28;19920;-81
2023/07/27 04:26:36;;;;;;;;;;;13.70;99.90;;;;;;5112542;28;19920;-81
2023/07/27 04:29:02;;;;;;;;;;;13.70;99.90;;;;;;5112164;28;19931;-77
2023/07/27 04:31:33;;;;;;;;;;;13.70;99.90;;;;;;5112196;28;19930;-78
2023/07/27 04:34:05;;;;;;;;;;;13.70;99.90;;;;;;5095785;28;19926;-77
2023/07/27 04:36:32;;;;;;;;;;;13.60;99.90;;;;;;5112403;28;19923;-78
2023/07/27 04:38:57;;;;;;;;;;;13.60;99.90;;;;;;5111875;28;19962;-77
2023/07/27 04:41:23;;;;;;;;;;;13.60;99.90;;;;;;5095094;28;19963;-76
2023/07/27 04:43:49;;;;;;;;;;;13.70;99.90;;;;;;5095270;28;19927;-76
2023/07/27 04:46:14;;;;;;;;;;;13.60;99.90;;;;;;5111923;28;20410;-78
2023/07/27 04:48:40;;;;;;;;;;;13.60;99.90;;;;;;5111696;28;20332;-77
2023/07/27 04:51:05;;;;;;;;;;;13.60;99.90;;;;;;5111313;28;20025;-79
2023/07/27 04:53:31;;;;;;;;;;;13.60;99.90;;;;;;5111934;28;19931;-77
2023/07/27 04:55:56;;;;;;;;;;;13.70;99.90;;;;;;5111948;28;19935;-75
2023/07/27 04:58:23;;;;;;;;;;;13.60;99.90;;;;;;5112016;28;20379;-80
2023/07/27 05:00:54;;;;;;;;;;;13.60;99.90;;;;;;5111501;28;19946;-80
2023/07/27 05:03:20;;;;;;;;;;;13.60;99.90;;;;;;5111667;28;19930;-79
2023/07/27 05:05:45;;;;;;;;;;;13.60;99.90;;;;;;5094380;28;19924;-76
2023/07/27 05:08:11;;;;;;;;;;;13.60;99.90;;;;;;5094702;28;19959;-77
2023/07/27 05:10:40;;;;;;;;;;;13.60;99.90;;;;;;5094925;28;19951;-80
2023/07/27 05:13:07;;;;;;;;;;;13.70;99.90;;;;;;5094009;28;19926;-81
2023/07/27 05:15:33;;;;;;;;;;;13.60;99.90;;;;;;5094609;28;19924;-77
2023/07/27 05:17:59;;;;;;;;;;;13.70;99.90;;;;;;5111005;28;19924;-76
2023/07/27 05:20:25;;;;;;;;;;;13.70;99.90;;;;;;5094336;28;20005;-79
2023/07/27 05:22:50;;;;;;;;;;;13.70;99.90;;;;;;5094329;28;19919;-77
2023/07/27 05:25:17;;;;;;;;;;;13.80;99.90;;;;;;5104196;28;19993;-77
2023/07/27 05:27:43;;;;;;;;;;;13.80;99.90;;;;;;5091658;28;19942;-78
2023/07/27 05:30:09;;;;;;;;;;;13.70;99.90;;;;;;5090529;28;20350;-77
2023/07/27 05:32:34;;;;;;;;;;;13.80;99.90;;;;;;5090772;28;19973;-76
2023/07/27 05:35:00;;;;;;;;;;;13.80;99.90;;;;;;5090744;28;20020;-77
2023/07/27 05:37:26;;;;;;;;;;;13.80;99.90;;;;;;5056731;28;19920;-81
2023/07/27 05:39:52;;;;;;;;;;;13.90;99.90;;;;;;5090880;28;19920;-77
2023/07/27 05:42:27;;;;;;;;;;;13.90;99.90;;;;;;5092753;28;19935;-80
2023/07/27 05:44:53;;;;;;;;;;;14.00;99.90;;;;;;5092823;28;19920;-77
2023/07/27 05:47:18;;;;;;;;;;;13.90;99.90;;;;;;5074762;28;20440;-77
2023/07/27 05:49:44;;;;;;;;;;;13.90;99.90;;;;;;5098084;28;20025;-76
2023/07/27 05:52:10;;;;;;;;;;;13.90;99.90;;;;;;5077715;28;19928;-77
2023/07/27 05:54:35;;;;;;;;;;;13.90;99.90;;;;;;5111448;28;20016;-77
2023/07/27 05:57:01;;;;;;;;;;;13.90;99.90;;;;;;5110890;28;19920;-76
2023/07/27 05:59:26;;;;;;;;;;;13.90;99.90;;;;;;5110941;28;19939;-78
2023/07/27 06:01:52;;;;;;;;;;;13.80;99.90;;;;;;5093834;28;20449;-76
2023/07/27 06:04:23;;;;;;;;;;;13.80;99.90;;;;;;5112242;28;19931;-78
2023/07/27 06:06:51;;;;;;;;;;;13.80;99.90;;;;;;5111773;28;19967;-78
2023/07/27 06:09:17;;;;;;;;;;;13.80;99.90;;;;;;5110746;28;19927;-78
2023/07/27 06:11:48;;;;;;;;;;;13.80;99.90;;;;;;5095437;28;19930;-81
2023/07/27 06:14:17;;;;;;;;;;;13.80;99.90;;;;;;5111792;28;19928;-78
2023/07/27 06:16:43;;;;;;;;;;;13.80;99.90;;;;;;5094433;28;19930;-82
2023/07/27 06:19:09;;;;;;;;;;;13.90;99.90;;;;;;5110558;28;20285;-78
2023/07/27 06:21:40;;;;;;;;;;;13.90;99.90;;;;;;5102643;28;19981;-77
2023/07/27 06:24:07;;;;;;;;;;;14.00;99.90;;;;;;5073912;28;19924;-78
2023/07/27 06:26:33;;;;;;;;;;;14.10;99.90;;;;;;5076121;28;19967;-79
2023/07/27 06:29:03;;;;;;;;;;;14.30;99.90;;;;;;5095684;28;19974;-79
2023/07/27 06:31:29;;;;;;;;;;;14.40;99.90;;;;;;5094290;28;19931;-81
2023/07/27 06:33:57;;;;;;;;;;;14.70;99.90;;;;;;5094416;28;19924;-80
2023/07/27 06:36:23;;;;;;;;;;;14.90;99.90;;;;;;5094585;28;19924;-80
2023/07/27 06:38:49;;;;;;;;;;;15.20;99.90;;;;;;5077717;28;19928;-81
2023/07/27 06:41:14;;;;;;;;;;;15.30;99.90;;;;;;5094110;28;19924;-77
2023/07/27 06:43:40;;;;;;;;;;;15.50;99.90;;;;;;5078445;28;19926;-81
2023/07/27 06:46:05;;;;;;;;;;;15.50;99.90;;;;;;5076969;28;19920;-79
2023/07/27 06:48:31;;;;;;;;;;;15.60;99.90;;;;;;5060772;28;20006;-78
2023/07/27 06:50:57;;;;;;;;;;;;;;;;;;5093457;28;19927;-79
2023/07/27 06:53:26;;;;;;;;;;;15.80;99.90;;;;;;5115962;28;19920;-75
2023/07/27 06:55:52;;;;;;;;;;;;;;;;;;5114035;28;19930;-79
2023/07/27 06:58:18;;;;;;;;;;;16.00;99.90;;;;;;5113519;28;20634;-78
2023/07/27 07:00:44;;;;;;;;;;;16.10;99.90;;;;;;5080064;28;19930;-77
2023/07/27 07:03:10;;;;;;;;;;;16.20;99.90;;;;;;5097150;28;19920;-77
2023/07/27 07:05:35;;;;;;;;;;;16.20;99.90;;;;;;5097331;28;19998;-78
2023/07/27 07:08:01;;;;;;;;;;;16.10;99.90;;;;;;5113875;28;19920;-77
2023/07/27 07:10:27;;;;;;;;;;;16.10;99.90;;;;;;5113762;28;19924;-78
2023/07/27 07:12:53;;;;;;;;;;;16.10;99.90;;;;;;5114090;28;19969;-76
2023/07/27 07:15:19;;;;;;;;;;;16.10;99.90;;;;;;5113209;28;19923;-78
2023/07/27 07:17:44;;;;;;;;;;;16.10;99.90;;;;;;5105592;28;19920;-77
2023/07/27 07:20:16;;;;;;;;;;;16.30;99.90;;;;;;5093146;28;20291;-80
2023/07/27 07:22:42;;;;;;;;;;;15.90;99.90;;;;;;5093366;28;19920;-77
2023/07/27 07:25:17;;;;;;;;;;;15.90;99.90;;;;;;5093563;28;19966;-78
2023/07/27 07:27:42;;;;;;;;;;;15.70;99.90;;;;;;5093576;28;20354;-77
2023/07/27 07:30:08;;;;;;;;;;;16.00;99.90;;;;;;5075838;28;19920;-74
2023/07/27 07:32:34;;;;;;;;;;;16.10;99.90;;;;;;5093206;28;19928;-76
2023/07/27 07:35:00;;;;;;;;;;;16.20;99.90;;;;;;5075800;28;19924;-75
2023/07/27 07:37:26;;;;;;;;;;;16.10;99.90;;;;;;5092699;28;19920;-76
2023/07/27 07:39:51;;;;;;;;;;;16.20;99.90;;;;;;5076210;28;19927;-80
2023/07/27 07:42:17;;;;;;;;;;;16.20;99.90;;;;;;5075529;28;19927;-77
2023/07/27 07:44:42;;;;;;;;;;;16.30;99.90;;;;;;5092986;28;19970;-75
2023/07/27 07:47:08;;;;;;;;;;;16.20;99.90;;;;;;5092571;28;19927;-77
2023/07/27 07:49:34;;;;;;;;;;;16.20;99.90;;;;;;5096765;28;19927;-78
2023/07/27 07:52:01;;;;;;;;;;;16.10;99.90;;;;;;5112853;28;19928;-75
2023/07/27 07:54:30;;;;;;;;;;;16.30;99.90;;;;;;5096639;28;19972;-78
2023/07/27 07:56:55;;;;;;;;;;;16.00;99.90;;;;;;5096302;28;20245;-77
2023/07/27 07:59:22;;;;;;;;;;;16.30;99.90;;;;;;5112583;28;19934;-77
2023/07/27 08:01:48;;;;;;;;;;;16.10;99.90;;;;;;5095330;28;20037;-78
2023/07/27 08:04:17;;;;;;;;;;;16.20;99.90;;;;;;5112693;28;19927;-76
2023/07/27 08:06:44;;;;;;;;;;;16.00;99.90;;;;;;5112763;28;20011;-80
2023/07/27 08:09:10;;;;;;;;;;;16.10;99.90;;;;;;5112166;28;19930;-79
2023/07/27 08:11:35;;;;;;;;;;;16.50;99.90;;;;;;5112559;28;19934;-76
2023/07/27 08:14:02;;;;;;;;;;;;;;;;;;5105063;28;19924;-76
2023/07/27 08:16:28;;;;;;;;;;;;;;;;;;5091937;28;19929;-77
2023/07/27 08:18:54;;;;;;;;;;;16.20;99.90;;;;;;5075381;28;19920;-77
2023/07/27 08:21:21;;;;;;;;;;;16.30;99.90;;;;;;5092333;28;20380;-82
2023/07/27 08:23:46;;;;;;;;;;;16.30;99.90;;;;;;5092087;28;20011;-82
2023/07/27 08:26:12;;;;;;;;;;;16.30;99.90;;;;;;5093252;28;20022;-80
2023/07/27 08:28:38;;;;;;;;;;;16.30;99.90;;;;;;5075176;28;20338;-79
2023/07/27 08:31:04;;;;;;;;;;;16.40;99.90;;;;;;5074878;28;19924;-78
2023/07/27 08:33:30;;;;;;;;;;;16.40;99.90;;;;;;5074889;28;19977;-75
2023/07/27 08:35:57;;;;;;;;;;;16.50;99.90;;;;;;5074952;28;19927;-80
2023/07/27 08:38:24;;;;;;;;;;;16.60;99.90;;;;;;5093096;28;19927;-76
2023/07/27 08:40:53;;;;;;;;;;;16.70;99.90;;;;;;5091975;28;19973;-78
2023/07/27 08:43:19;;;;;;;;;;;16.80;99.90;;;;;;5074682;28;19964;-77
2023/07/27 08:45:45;;;;;;;;;;;16.90;99.90;;;;;;5092121;28;20728;-79
2023/07/27 08:48:12;;;;;;;;;;;16.90;99.90;;;;;;5092256;28;19930;-79
2023/07/27 08:50:37;;;;;;;;;;;16.90;99.90;;;;;;5092235;28;19978;-79
2023/07/27 08:53:03;;;;;;;;;;;16.90;99.90;;;;;;5092821;28;19955;-75
2023/07/27 08:55:28;;;;;;;;;;;16.90;99.90;;;;;;5075795;28;19941;-77
2023/07/27 08:57:55;;;;;;;;;;;16.90;99.90;;;;;;5058262;28;19927;-77
2023/07/27 09:00:21;;;;;;;;;;;16.90;99.90;;;;;;5074369;28;19924;-75
2023/07/27 09:02:47;;;;;;;;;;;16.90;99.90;;;;;;5091474;28;20414;-79
2023/07/27 09:05:15;;;;;;;;;;;16.80;99.90;;;;;;5091375;28;19924;-78
2023/07/27 09:07:41;;;;;;;;;;;16.80;99.90;;;;;;5092165;28;20393;-79
2023/07/27 09:10:10;;;;;;;;;;;16.80;99.90;;;;;;5091989;28;19974;-77
2023/07/27 09:12:36;;;;;;;;;;;16.90;99.90;;;;;;5093193;28;20458;-77
2023/07/27 09:15:07;;;;;;;;;;;16.90;99.90;;;;;;5092570;28;19930;-77
2023/07/27 09:17:33;;;;;;;;;;;17.00;99.90;;;;;;5092375;28;19927;-79
2023/07/27 09:20:02;;;;;;;;;;;17.20;99.90;;;;;;5093047;28;20651;-78
2023/07/27 09:22:28;;;;;;;;;;;17.50;99.90;;;;;;5074280;28;20011;-79
2023/07/27 09:24:56;;;;;;;;;;;17.70;99.90;;;;;;5091919;28;19924;-76
2023/07/27 09:27:22;;;;;;;;;;;17.80;99.90;;;;;;5074403;28;20295;-76
2023/07/27 09:29:56;;;;;;;;;;;18.00;99.90;;;;;;5075326;28;19920;-78
2023/07/27 09:32:22;;;;;;;;;;;18.10;99.90;;;;;;5093060;28;20048;-79
2023/07/27 09:34:53;;;;;;;;;;;18.10;99.90;;;;;;5074990;28;20354;-80
2023/07/27 09:37:19;;;;;;;;;;;18.10;99.90;;;;;;5091511;28;19920;-80
2023/07/27 09:39:45;;;;;;;;;;;18.10;99.90;;;;;;5074386;28;20015;-80
2023/07/27 09:42:13;;;;;;;;;;;18.00;99.90;;;;;;5090617;28;19930;-80
2023/07/27 09:44:48;;;;;;;;;;;17.90;99.90;;;;;;5091225;28;19974;-77
2023/07/27 09:47:18;;;;;;;;;;;17.90;99.90;;;;;;5090566;28;19920;-78
2023/07/27 09:49:44;;;;;;;;;;;17.90;99.90;;;;;;5063388;28;19919;-77
2023/07/27 09:52:11;;;;;;;;;;;17.90;99.90;;;;;;5111508;28;20334;-76
2023/07/27 09:54:38;;;;;;;;;;;17.80;99.90;;;;;;5112262;28;20333;-80
2023/07/27 09:57:04;;;;;;;;;;;17.70;99.90;;;;;;5112376;28;19926;-77
2023/07/27 09:59:29;;;;;;;;;;;17.60;99.90;;;;;;5111880;28;19924;-79
2023/07/27 10:01:55;;;;;;;;;;;17.50;99.90;;;;;;5115669;28;19927;-79
2023/07/27 10:04:20;;;;;;;;;;;17.50;99.90;;;;;;5114835;28;20289;-78
2023/07/27 10:06:46;;;;;;;;;;;17.50;99.90;;;;;;5098629;28;19967;-78
2023/07/27 10:09:22;;;;;;;;;;;17.50;99.90;;;;;;5098065;28;19977;-79
2023/07/27 10:11:55;;;;;;;;;;;17.50;99.90;;;;;;5116455;28;19972;-80
2023/07/27 10:14:23;;;;;;;;;;;17.70;99.90;;;;;;5115560;28;19920;-78
2023/07/27 10:17:08;;;;;;;;;;;17.90;99.90;;;;;;5115832;28;19955;-81
2023/07/27 10:19:44;;;;;;;;;;;18.00;99.90;;;;;;5117707;28;19920;-77
2023/07/27 10:22:17;;;;;;;;;;;18.00;99.90;;;;;;5105736;28;19931;-77
2023/07/27 10:24:54;;;;;;;;;;;18.00;99.90;;;;;;5102480;28;19932;-76
2023/07/27 10:27:20;;;;;;;;;;;18.10;99.90;;;;;;5120924;28;19963;-76
2023/07/27 10:29:53;;;;;;;;;;;18.20;99.90;;;;;;5120470;28;19969;-80
2023/07/27 10:32:20;;;;;;;;;;;18.20;99.90;;;;;;5124353;28;19934;-79
2023/07/27 10:34:49;;;;;;;;;;;18.20;99.90;;;;;;5122996;28;19931;-80
2023/07/27 10:37:15;;;;;;;;;;;18.10;99.90;;;;;;5098557;28;19963;-80
2023/07/27 10:39:45;;;;;;;;;;;18.10;99.90;;;;;;5116913;28;20023;-78
2023/07/27 10:42:12;;;;;;;;;;;18.10;99.90;;;;;;5122425;28;19977;-77
2023/07/27 10:44:41;;;;;;;;;;;18.20;99.90;;;;;;5119705;28;19930;-76
2023/07/27 10:47:08;;;;;;;;;;;18.20;99.90;;;;;;5117390;28;19959;-79
2023/07/27 10:49:40;;;;;;;;;;;18.30;99.90;;;;;;5103371;28;19923;-78
2023/07/27 10:52:09;;;;;;;;;;;18.30;99.90;;;;;;5124283;28;20380;-78
2023/07/27 10:54:39;;;;;;;;;;;18.30;99.90;;;;;;5124514;28;19956;-77
2023/07/27 10:57:09;;;;;;;;;;;18.20;99.90;;;;;;5123113;28;19930;-78
2023/07/27 10:59:36;;;;;;;;;;;18.20;99.90;;;;;;5123230;28;20446;-78
2023/07/27 11:02:03;;;;;;;;;;;18.10;99.90;;;;;;5106597;28;19919;-77
2023/07/27 11:04:29;;;;;;;;;;;18.00;99.90;;;;;;5123033;28;19919;-78
2023/07/27 11:06:54;;;;;;;;;;;17.90;99.90;;;;;;5124267;28;19973;-77
2023/07/27 11:09:29;;;;;;;;;;;17.80;99.90;;;;;;5122510;28;19946;-76
2023/07/27 11:11:58;;;;;;;;;;;17.70;99.90;;;;;;5122655;28;19928;-77
2023/07/27 11:14:23;;;;;;;;;;;17.50;99.90;;;;;;5123050;28;19924;-76
2023/07/27 11:16:51;;;;;;;;;;;17.40;99.90;;;;;;5123592;28;20024;-76
2023/07/27 11:19:16;;;;;;;;;;;17.40;99.90;;;;;;5105160;28;19923;-76
2023/07/27 11:21:42;;;;;;;;;;;17.30;99.90;;;;;;5122698;28;19930;-76
2023/07/27 11:24:08;;;;;;;;;;;17.20;99.90;;;;;;5123924;28;19927;-75
2023/07/27 11:26:35;;;;;;;;;;;17.10;99.90;;;;;;5124413;28;19924;-80
2023/07/27 11:29:02;;;;;;;;;;;17.10;99.90;;;;;;5124236;28;19968;-77
2023/07/27 11:31:28;;;;;;;;;;;17.10;99.90;;;;;;5105740;28;20323;-76
2023/07/27 11:33:58;;;;;;;;;;;17.20;99.90;;;;;;5124173;28;19919;-77
2023/07/27 11:36:26;;;;;;;;;;;17.30;99.90;;;;;;5124220;28;19920;-80
2023/07/27 11:38:51;;;;;;;;;;;17.40;99.90;;;;;;5113840;28;19920;-80
2023/07/27 11:41:20;;;;;;;;;;;17.60;99.90;;;;;;5115002;28;19992;-82
2023/07/27 11:43:50;;;;;;;;;;;17.80;99.90;;;;;;5097790;28;20385;-84
2023/07/27 11:46:16;;;;;;;;;;;17.90;99.90;;;;;;5115110;28;20381;-81
2023/07/27 11:48:42;;;;;;;;;;;17.90;99.90;;;;;;5097128;28;19927;-81
2023/07/27 11:51:08;;;;;;;;;;;17.90;99.90;;;;;;5077165;28;19924;-81
2023/07/27 11:53:33;;;;;;;;;;;17.90;99.90;;;;;;5079251;28;19920;-83
2023/07/27 11:55:59;;;;;;;;;;;17.90;99.90;;;;;;5114279;28;20014;-80
2023/07/27 11:58:29;;;;;;;;;;;17.90;99.90;;;;;;5096164;28;19920;-80
2023/07/27 12:00:55;;;;;;;;;;;17.90;99.90;;;;;;5113569;28;19924;-82
2023/07/27 12:03:24;;;;;;;;;;;17.90;99.90;;;;;;5080371;28;20286;-82
2023/07/27 12:05:52;;;;;;;;;;;17.90;99.90;;;;;;5097432;28;19919;-80
2023/07/27 12:08:19;;;;;;;;;;;17.90;99.90;;;;;;5113557;28;19968;-82
2023/07/27 12:11:03;;;;;;;;;;;17.90;99.90;;;;;;5096828;28;20285;-82
2023/07/27 12:13:31;;;;;;;;;;;17.80;99.90;;;;;;5096902;28;19981;-84
2023/07/27 12:16:17;;;;;;;;;;;17.90;99.90;;;;;;5115123;28;19924;-81
2023/07/27 12:18:45;;;;;;;;;;;17.90;99.90;;;;;;5115323;28;19924;-83
2023/07/27 12:21:11;;;;;;;;;;;17.90;99.90;;;;;;5098567;28;20279;-84
2023/07/27 12:23:37;;;;;;;;;;;18.00;99.90;;;;;;5096489;28;20388;-82
2023/07/27 12:26:03;;;;;;;;;;;18.10;99.90;;;;;;5114321;28;19972;-83
2023/07/27 12:28:28;;;;;;;;;;;18.30;99.90;;;;;;5097610;28;19919;-83
2023/07/27 12:30:54;;;;;;;;;;;18.40;99.90;;;;;;5116689;28;20357;-83
2023/07/27 12:33:21;;;;;;;;;;;18.50;99.90;;;;;;5114804;28;19919;-84
2023/07/27 12:35:47;;;;;;;;;;;18.70;99.90;;;;;;5113922;28;19961;-83
2023/07/27 12:38:13;;;;;;;;;;;18.80;99.90;;;;;;5098114;28;19920;-83
2023/07/27 12:40:39;;;;;;;;;;;19.00;99.90;;;;;;5097700;28;19932;-81
2023/07/27 12:43:05;;;;;;;;;;;19.00;99.90;;;;;;5097906;28;20323;-83
2023/07/27 12:45:30;;;;;;;;;;;19.40;99.90;;;;;;5097334;28;19923;-81
2023/07/27 12:47:56;;;;;;;;;;;19.50;99.90;;;;;;5114657;28;19920;-81
2023/07/27 12:50:21;;;;;;;;;;;19.60;99.90;;;;;;5097001;28;20289;-81
2023/07/27 12:52:48;;;;;;;;;;;19.60;99.90;;;;;;5096643;28;19934;-81
2023/07/27 12:55:14;;;;;;;;;;;19.80;99.90;;;;;;5095888;28;19994;-81
2023/07/27 12:57:40;;;;;;;;;;;20.10;99.90;;;;;;5095286;28;19923;-78
2023/07/27 13:00:08;;;;;;;;;;;20.30;99.90;;;;;;5095609;28;19924;-80
2023/07/27 13:02:37;;;;;;;;;;;20.10;99.90;;;;;;5112358;28;20364;-82
2023/07/27 13:05:03;;;;;;;;;;;20.40;99.90;;;;;;5094797;28;19924;-79
2023/07/27 13:07:29;;;;;;;;;;;20.20;99.90;;;;;;5093619;28;19943;-76
2023/07/27 13:09:55;;;;;;;;;;;20.40;99.90;;;;;;5110595;28;19946;-79
2023/07/27 13:12:21;;;;;;;;;;;20.50;99.90;;;;;;5111153;28;19928;-79
2023/07/27 13:14:47;;;;;;;;;;;20.30;99.90;;;;;;5094130;28;19924;-78
2023/07/27 13:17:12;;;;;;;;;;;20.40;99.90;;;;;;5111084;28;19931;-77
2023/07/27 13:19:39;;;;;;;;;;;20.60;99.90;;;;;;5110564;28;19920;-77
2023/07/27 13:22:05;;;;;;;;;;;20.70;99.90;;;;;;5093992;28;19931;-78
2023/07/27 13:24:31;;;;;;;;;;;20.70;99.90;;;;;;5110495;28;19920;-79
2023/07/27 13:26:57;;;;;;;;;;;20.70;99.90;;;;;;5076958;28;20331;-79
2023/07/27 13:29:23;;;;;;;;;;;;;;;;;;5093666;28;19923;-76
2023/07/27 13:31:48;;;;;;;;;;;20.90;99.90;;;;;;5093554;28;19931;-79
2023/07/27 13:34:14;;;;;;;;;;;21.00;99.90;;;;;;5111553;28;19942;-79
2023/07/27 13:36:39;;;;;;;;;;;21.00;99.90;;;;;;5110184;28;20411;-79
2023/07/27 13:39:05;;;;;;;;;;;20.90;99.90;;;;;;5110395;28;20292;-78
2023/07/27 13:41:31;;;;;;;;;;;20.70;99.90;;;;;;5109842;28;19924;-78
2023/07/27 13:43:56;;;;;;;;;;;20.60;99.90;;;;;;5093471;28;19924;-78
2023/07/27 13:46:23;;;;;;;;;;;20.50;99.90;;;;;;5110018;28;20417;-80
2023/07/27 13:48:49;;;;;;;;;;;20.40;99.90;;;;;;5109860;28;19930;-79
2023/07/27 13:51:17;;;;;;;;;;;20.30;99.90;;;;;;5109474;28;19923;-76
2023/07/27 13:53:43;;;;;;;;;;;20.20;99.90;;;;;;5092841;28;19919;-79
2023/07/27 13:56:08;;;;;;;;;;;20.10;99.90;;;;;;5092948;28;19976;-77
2023/07/27 13:58:40;;;;;;;;;;;20.00;99.90;;;;;;5110260;28;20268;-77
2023/07/27 14:01:06;;;;;;;;;;;20.10;99.90;;;;;;5110065;28;20014;-79
2023/07/27 14:03:33;;;;;;;;;;;20.20;99.90;;;;;;5110802;28;20277;-76
2023/07/27 14:05:58;;;;;;;;;;;19.90;99.90;;;;;;5110786;28;19925;-76
2023/07/27 14:08:31;;;;;;;;;;;19.90;99.90;;;;;;5110144;28;20273;-77
2023/07/27 14:10:57;;;;;;;;;;;19.80;99.90;;;;;;5092164;28;19928;-79
2023/07/27 14:13:22;;;;;;;;;;;19.70;99.90;;;;;;5110060;28;19924;-78
2023/07/27 14:15:48;;;;;;;;;;;19.70;99.90;;;;;;5092282;28;20427;-78
2023/07/27 14:18:13;;;;;;;;;;;19.80;99.90;;;;;;5110146;28;19923;-78